Time;durP1;ratioP1;P1;durP2;ratioP2;P2;SDS_P1;SDS_P2;PMS_P1;PMS_P2;Temp;Humidity;BMP_temperature;BMP_pressure;BME280_temperature;BME280_humidity;BME280_pressure;Samples;Min_cycle;Max_cycle;Signal;HPM_P1;HPM_P2
2021/11/27 00:02:06;0.00;0.00;0.62;0.00;0.00;0.62;2.00;1.50;;;21.20;27.50;;;;;;2241373;62;20707;-70
2021/11/27 00:04:51;0.00;0.00;0.62;0.00;0.00;0.62;1.50;1.00;;;21.20;27.50;;;;;;2242159;62;20369;-71
2021/11/27 00:07:36;0.00;0.00;0.62;0.00;0.00;0.62;1.50;0.90;;;21.20;27.40;;;;;;2242178;62;20370;-70
2021/11/27 00:10:24;0.00;0.00;0.62;0.00;0.00;0.62;1.87;1.10;;;21.20;27.50;;;;;;2241319;61;20742;-70
2021/11/27 00:13:09;0.00;0.00;0.62;0.00;0.00;0.62;1.53;1.00;;;21.30;27.50;;;;;;2242194;62;20435;-70
2021/11/27 00:15:55;0.00;0.00;0.62;0.00;0.00;0.62;1.63;1.10;;;21.30;27.50;;;;;;2242073;62;20568;-70
2021/11/27 00:18:42;0.00;0.00;0.62;0.00;0.00;0.62;1.70;1.13;;;21.30;27.50;;;;;;2242135;62;20407;-71
2021/11/27 00:21:27;0.00;0.00;0.62;0.00;0.00;0.62;1.53;0.97;;;21.20;27.50;;;;;;2241964;61;20390;-69
2021/11/27 00:24:12;0.00;0.00;0.62;0.00;0.00;0.62;2.37;1.20;;;21.20;27.50;;;;;;2241460;62;20401;-72
2021/11/27 00:26:56;0.00;0.00;0.62;0.00;0.00;0.62;2.17;1.20;;;21.30;27.50;;;;;;2242276;62;20390;-70
2021/11/27 00:29:42;0.00;0.00;0.62;0.00;0.00;0.62;1.83;1.13;;;21.30;27.50;;;;;;2242016;62;20403;-70
2021/11/27 00:32:27;0.00;0.00;0.62;0.00;0.00;0.62;2.13;1.10;;;21.30;27.50;;;;;;2241435;62;20370;-70
2021/11/27 00:35:13;0.00;0.00;0.62;0.00;0.00;0.62;1.90;1.10;;;21.30;27.50;;;;;;2241838;62;20366;-70
2021/11/27 00:38:00;0.00;0.00;0.62;0.00;0.00;0.62;2.20;1.10;;;21.20;27.40;;;;;;2241886;62;20832;-71
2021/11/27 00:40:45;0.00;0.00;0.62;0.00;0.00;0.62;2.10;1.10;;;21.30;27.50;;;;;;2241759;61;20794;-71
2021/11/27 00:43:31;0.00;0.00;0.62;0.00;0.00;0.62;2.30;1.23;;;21.30;27.50;;;;;;2241643;62;20367;-71
2021/11/27 00:46:16;0.00;0.00;0.62;0.00;0.00;0.62;1.90;1.20;;;21.30;27.50;;;;;;2241033;61;20528;-71
2021/11/27 00:49:03;0.00;0.00;0.62;0.00;0.00;0.62;1.33;0.87;;;21.30;27.50;;;;;;2241838;62;20401;-71
2021/11/27 00:51:49;0.00;0.00;0.62;0.00;0.00;0.62;1.70;1.07;;;21.30;27.50;;;;;;2241918;61;20806;-71
2021/11/27 00:54:34;0.00;0.00;0.62;0.00;0.00;0.62;1.60;1.00;;;21.30;27.50;;;;;;2241471;62;20684;-71
2021/11/27 00:57:19;0.00;0.00;0.62;0.00;0.00;0.62;1.40;0.97;;;21.30;27.50;;;;;;2241718;62;20358;-71
2021/11/27 01:00:05;0.00;0.00;0.62;0.00;0.00;0.62;2.10;1.17;;;21.30;27.50;;;;;;2241714;61;20683;-70
2021/11/27 01:02:51;0.00;0.00;0.62;0.00;0.00;0.62;1.80;1.03;;;21.30;27.50;;;;;;2241142;62;20439;-70
2021/11/27 01:05:41;0.00;0.00;0.62;0.00;0.00;0.62;1.90;1.27;;;21.30;27.50;;;;;;2242011;62;20602;-70
2021/11/27 01:08:28;0.00;0.00;0.62;0.00;0.00;0.62;1.90;1.00;;;21.30;27.50;;;;;;2241042;62;20390;-70
2021/11/27 01:11:18;0.00;0.00;0.62;0.00;0.00;0.62;1.50;0.97;;;21.30;27.50;;;;;;2241840;61;20386;-70
2021/11/27 01:14:06;0.00;0.00;0.62;0.00;0.00;0.62;2.00;1.50;;;21.30;27.50;;;;;;2241852;62;20759;-70
2021/11/27 01:16:56;0.00;0.00;0.62;0.00;0.00;0.62;1.40;1.00;;;21.30;27.50;;;;;;2241498;62;20366;-66
2021/11/27 01:19:41;0.00;0.00;0.62;0.00;0.00;0.62;1.60;1.00;;;21.30;27.50;;;;;;2241836;62;20723;-70
2021/11/27 01:22:26;0.00;0.00;0.62;0.00;0.00;0.62;1.50;1.00;;;21.30;27.50;;;;;;2241728;62;20367;-70
2021/11/27 01:25:12;0.00;0.00;0.62;0.00;0.00;0.62;1.90;1.37;;;21.30;27.50;;;;;;2241959;62;20410;-70
2021/11/27 01:27:57;0.00;0.00;0.62;0.00;0.00;0.62;2.00;1.07;;;21.30;27.50;;;;;;2241790;62;20374;-70
2021/11/27 01:30:42;0.00;0.00;0.62;0.00;0.00;0.62;1.73;1.23;;;21.30;27.50;;;;;;2241282;61;20606;-70
2021/11/27 01:33:30;0.00;0.00;0.62;0.00;0.00;0.62;1.33;0.80;;;21.30;27.50;;;;;;2241810;62;20399;-69
2021/11/27 01:36:15;0.00;0.00;0.62;0.00;0.00;0.62;1.20;0.80;;;21.30;27.50;;;;;;2241447;62;20363;-69
2021/11/27 01:39:00;0.00;0.00;0.62;0.00;0.00;0.62;1.50;1.10;;;21.30;27.50;;;;;;2241409;62;20415;-69
2021/11/27 01:41:47;0.00;0.00;0.62;0.00;0.00;0.62;1.50;1.10;;;21.30;27.50;;;;;;2241618;61;20394;-70
2021/11/27 01:44:32;0.00;0.00;0.62;0.00;0.00;0.62;1.30;0.90;;;21.30;27.50;;;;;;2241474;62;20430;-70
2021/11/27 01:47:17;0.00;0.00;0.62;0.00;0.00;0.62;1.40;0.93;;;21.30;27.50;;;;;;2241003;62;20399;-70
2021/11/27 01:50:05;0.00;0.00;0.62;0.00;0.00;0.62;1.30;0.90;;;21.30;27.50;;;;;;2241354;61;20362;-70
2021/11/27 01:52:50;0.00;0.00;0.62;0.00;0.00;0.62;1.50;1.00;;;21.30;27.50;;;;;;2240996;62;20444;-70
2021/11/27 01:55:36;0.00;0.00;0.62;0.00;0.00;0.62;1.90;1.00;;;21.30;27.50;;;;;;2241977;62;20362;-69
2021/11/27 01:58:23;0.00;0.00;0.62;0.00;0.00;0.62;2.13;0.90;;;21.30;27.50;;;;;;2241250;62;20386;-69
2021/11/27 02:01:15;0.00;0.00;0.62;0.00;0.00;0.62;1.60;1.00;;;21.30;27.50;;;;;;2240809;61;20455;-70
2021/11/27 02:04:02;0.00;0.00;0.62;0.00;0.00;0.62;1.50;0.93;;;21.30;28.10;;;;;;2241348;62;20358;-70
2021/11/27 02:06:51;0.00;0.00;0.62;0.00;0.00;0.62;1.77;1.03;;;21.30;27.50;;;;;;2241385;62;20426;-70
2021/11/27 02:09:38;0.00;0.00;0.62;0.00;0.00;0.62;1.40;0.80;;;21.30;27.50;;;;;;2241300;62;20574;-70
2021/11/27 02:12:23;0.00;0.00;0.62;0.00;0.00;0.62;2.27;1.00;;;21.30;27.50;;;;;;2241370;62;20374;-70
2021/11/27 02:15:11;0.00;0.00;0.62;0.00;0.00;0.62;1.43;0.90;;;21.30;27.50;;;;;;2240921;62;20428;-70
2021/11/27 02:17:56;0.00;0.00;0.62;0.00;0.00;0.62;1.40;0.90;;;21.30;27.50;;;;;;2241398;62;20406;-70
2021/11/27 02:20:54;0.00;0.00;0.62;0.00;0.00;0.62;1.47;1.10;;;21.30;27.50;;;;;;2241163;61;20382;-70
2021/11/27 02:23:40;0.00;0.00;0.62;0.00;0.00;0.62;1.50;1.00;;;21.30;27.50;;;;;;2240618;62;20363;-70
2021/11/27 02:26:35;0.00;0.00;0.62;0.00;0.00;0.62;1.60;1.00;;;21.30;27.50;;;;;;2241335;62;20386;-70
2021/11/27 02:29:28;0.00;0.00;0.62;0.00;0.00;0.62;1.57;1.03;;;21.30;27.50;;;;;;2240625;62;20382;-70
2021/11/27 02:32:16;0.00;0.00;0.62;0.00;0.00;0.62;1.70;0.80;;;21.30;27.60;;;;;;2241431;62;20402;-69
2021/11/27 02:35:01;0.00;0.00;0.62;0.00;0.00;0.62;1.40;0.90;;;21.30;27.60;;;;;;2241155;62;20371;-71
2021/11/27 02:37:48;0.00;0.00;0.62;0.00;0.00;0.62;1.30;0.70;;;21.30;27.60;;;;;;2240662;62;20432;-71
2021/11/27 02:40:33;0.00;0.00;0.62;0.00;0.00;0.62;1.30;0.77;;;21.30;27.60;;;;;;2243766;61;20777;-71
2021/11/27 02:43:19;0.00;0.00;0.62;0.00;0.00;0.62;1.60;1.00;;;21.30;27.70;;;;;;2241557;62;20729;-68
2021/11/27 02:46:04;0.00;0.00;0.62;0.00;0.00;0.62;1.30;0.70;;;21.30;27.70;;;;;;2240474;62;20458;-73
2021/11/27 02:48:49;0.00;0.00;0.62;0.00;0.00;0.62;1.77;0.80;;;21.30;27.70;;;;;;2241320;62;20403;-69
2021/11/27 02:51:35;0.00;0.00;0.62;0.00;0.00;0.62;1.20;0.70;;;21.30;27.70;;;;;;2240896;61;20597;-64
2021/11/27 02:54:21;0.00;0.00;0.62;0.00;0.00;0.62;1.40;0.90;;;21.30;27.70;;;;;;2241156;61;20386;-63
2021/11/27 02:57:06;0.00;0.00;0.62;0.00;0.00;0.62;1.30;0.90;;;21.30;27.80;;;;;;2241127;62;20358;-64
2021/11/27 02:59:51;0.00;0.00;0.62;0.00;0.00;0.62;1.50;1.00;;;21.30;27.80;;;;;;2240264;62;20359;-64
2021/11/27 03:02:36;0.00;0.00;0.62;0.00;0.00;0.62;1.80;0.93;;;21.30;27.80;;;;;;2240908;62;20406;-64
2021/11/27 03:05:21;0.00;0.00;0.62;0.00;0.00;0.62;1.93;1.10;;;21.30;27.80;;;;;;2241240;62;20386;-64
2021/11/27 03:08:06;0.00;0.00;0.62;0.00;0.00;0.62;1.83;1.00;;;21.30;27.80;;;;;;2240389;62;20398;-64
2021/11/27 03:10:52;0.00;0.00;0.62;0.00;0.00;0.62;1.50;0.90;;;21.30;27.80;;;;;;2242083;61;20382;-64
2021/11/27 03:13:40;0.00;0.00;0.62;0.00;0.00;0.62;2.43;0.80;;;21.30;27.80;;;;;;2242072;62;20415;-65
2021/11/27 03:16:27;0.00;0.00;0.62;0.00;0.00;0.62;1.37;0.80;;;21.30;27.80;;;;;;2242026;62;20406;-65
2021/11/27 03:19:12;0.00;0.00;0.62;0.00;0.00;0.62;1.80;0.93;;;21.30;27.70;;;;;;2241771;62;20411;-67
2021/11/27 03:21:57;0.00;0.00;0.62;0.00;0.00;0.62;1.60;1.07;;;21.40;27.80;;;;;;2241291;62;20381;-66
2021/11/27 03:24:43;0.00;0.00;0.62;0.00;0.00;0.62;1.80;1.30;;;21.30;27.60;;;;;;2241750;62;20405;-67
2021/11/27 03:27:30;0.00;0.00;0.62;0.00;0.00;0.62;2.40;1.47;;;21.30;27.50;;;;;;2241594;62;20766;-67
2021/11/27 03:30:18;0.00;0.00;0.62;0.00;0.00;0.62;2.07;1.87;;;21.30;27.50;;;;;;2240997;61;20366;-66
2021/11/27 03:33:10;0.00;0.00;0.62;0.00;0.00;0.62;2.30;1.20;;;21.30;27.50;;;;;;2241717;62;20386;-67
2021/11/27 03:35:55;0.00;0.00;0.62;0.00;0.00;0.62;1.53;1.27;;;21.30;27.50;;;;;;2241439;62;20374;-67
2021/11/27 03:38:40;0.00;0.00;0.62;0.00;0.00;0.62;1.70;1.30;;;21.30;27.50;;;;;;2241737;62;20358;-67
2021/11/27 03:41:25;0.00;0.00;0.62;0.00;0.00;0.62;1.80;1.40;;;21.30;27.50;;;;;;2223270;61;1120971;-67
2021/11/27 03:44:11;0.00;0.00;0.62;0.00;0.00;0.62;2.30;1.53;;;21.20;27.50;;;;;;2241282;62;20608;-67
2021/11/27 03:46:59;0.00;0.00;0.62;0.00;0.00;0.62;1.63;1.40;;;21.20;27.40;;;;;;2241853;62;20390;-66
2021/11/27 03:49:44;0.00;0.00;0.62;0.00;0.00;0.62;2.17;1.27;;;21.20;27.50;;;;;;2241581;62;20386;-67
2021/11/27 03:52:31;0.00;0.00;0.62;0.00;0.00;0.62;2.50;1.50;;;21.20;27.40;;;;;;2241295;62;20426;-67
2021/11/27 03:55:17;0.00;0.00;0.62;0.00;0.00;0.62;2.20;1.37;;;21.20;27.30;;;;;;2241732;62;20402;-67
2021/11/27 03:58:02;0.00;0.00;0.62;0.00;0.00;0.62;3.10;2.20;;;21.20;27.30;;;;;;2242191;62;20362;-67
2021/11/27 04:00:52;0.00;0.00;0.62;0.00;0.00;0.62;2.37;1.60;;;21.20;27.00;;;;;;2241821;61;20434;-67
2021/11/27 04:03:38;0.00;0.00;0.62;0.00;0.00;0.62;1.73;1.23;;;21.10;26.90;;;;;;2241495;62;20398;-68
2021/11/27 04:06:23;0.00;0.00;0.62;0.00;0.00;0.62;2.03;1.70;;;21.10;26.90;;;;;;2241226;62;20390;-67
2021/11/27 04:09:11;0.00;0.00;0.62;0.00;0.00;0.62;1.93;1.73;;;21.10;26.90;;;;;;2241605;62;20798;-67
2021/11/27 04:11:56;0.00;0.00;0.62;0.00;0.00;0.62;4.40;1.70;;;21.00;26.80;;;;;;2241716;62;20426;-67
2021/11/27 04:14:53;0.00;0.00;0.62;0.00;0.00;0.62;2.00;1.60;;;21.00;26.50;;;;;;2241296;62;20370;-67
2021/11/27 04:17:40;0.00;0.00;0.62;0.00;0.00;0.62;2.00;1.40;;;21.00;26.50;;;;;;2241604;62;20367;-67
2021/11/27 04:20:25;0.00;0.00;0.62;0.00;0.00;0.62;2.63;1.60;;;20.90;26.50;;;;;;2240814;61;20394;-67
2021/11/27 04:23:12;0.00;0.00;0.62;0.00;0.00;0.62;2.03;1.63;;;20.90;26.50;;;;;;2241808;62;20386;-67
2021/11/27 04:25:57;0.00;0.00;0.62;0.00;0.00;0.62;3.63;1.97;;;20.90;26.40;;;;;;2241488;62;20389;-65
2021/11/27 04:28:43;0.00;0.00;0.62;0.00;0.00;0.62;2.00;1.40;;;20.80;26.30;;;;;;2241374;62;20426;-67
2021/11/27 04:31:28;0.00;0.00;0.62;0.00;0.00;0.62;2.23;1.57;;;20.80;26.40;;;;;;2241580;61;20595;-68
2021/11/27 04:34:14;0.00;0.00;0.62;0.00;0.00;0.62;1.80;1.30;;;20.80;26.50;;;;;;2241749;62;20410;-67
2021/11/27 04:36:59;0.00;0.00;0.62;0.00;0.00;0.62;2.57;1.60;;;20.80;26.60;;;;;;2240996;62;20464;-68
2021/11/27 04:39:44;0.00;0.00;0.62;0.00;0.00;0.62;2.13;1.93;;;20.80;26.50;;;;;;2241531;62;20367;-65
2021/11/27 04:42:29;0.00;0.00;0.62;0.00;0.00;0.62;2.03;1.70;;;20.70;26.40;;;;;;2241517;62;20454;-65
2021/11/27 04:45:15;0.00;0.00;0.62;0.00;0.00;0.62;2.10;1.60;;;20.70;26.40;;;;;;2241756;62;20730;-67
2021/11/27 04:48:04;0.00;0.00;0.62;0.00;0.00;0.62;2.70;1.80;;;20.70;26.40;;;;;;2241490;62;20415;-68
2021/11/27 04:50:51;0.00;0.00;0.62;0.00;0.00;0.62;2.10;1.80;;;20.70;26.40;;;;;;2240912;61;20385;-67
2021/11/27 04:53:37;0.00;0.00;0.62;0.00;0.00;0.62;2.27;1.70;;;20.70;26.30;;;;;;2241934;62;20371;-68
2021/11/27 04:56:23;0.00;0.00;0.62;0.00;0.00;0.62;2.37;1.87;;;20.60;26.10;;;;;;2241692;62;20367;-65
2021/11/27 04:59:08;0.00;0.00;0.62;0.00;0.00;0.62;1.83;1.63;;;20.60;26.00;;;;;;2240781;62;20359;-67
2021/11/27 05:01:54;0.00;0.00;0.62;0.00;0.00;0.62;2.30;2.10;;;20.60;25.90;;;;;;2241506;61;20515;-67
2021/11/27 05:04:39;0.00;0.00;0.62;0.00;0.00;0.62;2.27;1.67;;;20.50;25.80;;;;;;2241624;62;20385;-67
2021/11/27 05:07:25;0.00;0.00;0.62;0.00;0.00;0.62;2.10;1.73;;;20.50;25.90;;;;;;2242162;62;20411;-67
2021/11/27 05:10:11;0.00;0.00;0.62;0.00;0.00;0.62;2.20;1.50;;;20.40;25.80;;;;;;2241340;61;20621;-67
2021/11/27 05:12:56;0.00;0.00;0.62;0.00;0.00;0.62;1.90;1.67;;;20.40;25.80;;;;;;2241014;62;20598;-65
2021/11/27 05:15:41;0.00;0.00;0.62;0.00;0.00;0.62;2.13;1.47;;;20.30;25.70;;;;;;2241497;62;20702;-67
2021/11/27 05:18:31;0.00;0.00;0.62;0.00;0.00;0.62;2.17;1.77;;;20.30;25.80;;;;;;2241453;62;20398;-67
2021/11/27 05:21:25;0.00;0.00;0.62;0.00;0.00;0.62;2.00;1.60;;;20.30;25.90;;;;;;2241206;61;20381;-67
2021/11/27 05:24:12;0.00;0.00;0.62;0.00;0.00;0.62;1.80;1.60;;;20.20;25.80;;;;;;2241512;62;20363;-68
2021/11/27 05:27:20;0.00;0.00;0.62;0.00;0.00;0.62;1.73;1.50;;;20.20;25.80;;;;;;2240899;62;20394;-67
2021/11/27 05:30:27;0.00;0.00;0.62;0.00;0.00;0.62;2.00;1.40;;;20.20;25.90;;;;;;2241493;61;20680;-66
2021/11/27 05:33:23;0.00;0.00;0.62;0.00;0.00;0.62;2.13;1.87;;;20.20;25.80;;;;;;2241138;62;20374;-66
2021/11/27 05:36:20;0.00;0.00;0.62;0.00;0.00;0.62;1.90;1.60;;;20.20;25.80;;;;;;2240999;62;20362;-67
2021/11/27 05:39:06;0.00;0.00;0.62;0.00;0.00;0.62;2.00;1.37;;;20.10;25.80;;;;;;2241400;62;20358;-66
2021/11/27 05:41:52;0.00;0.00;0.62;0.00;0.00;0.62;3.50;2.10;;;20.10;25.80;;;;;;2240366;61;20454;-66
2021/11/27 05:44:38;0.00;0.00;0.62;0.00;0.00;0.62;2.53;1.90;;;20.10;25.80;;;;;;2241697;62;20375;-67
2021/11/27 05:47:23;0.00;0.00;0.62;0.00;0.00;0.62;1.73;1.37;;;20.00;25.80;;;;;;2241557;62;20430;-67
2021/11/27 05:50:11;0.00;0.00;0.62;0.00;0.00;0.62;2.23;1.90;;;20.00;25.80;;;;;;2240693;62;20359;-65
2021/11/27 05:52:56;0.00;0.00;0.62;0.00;0.00;0.62;2.70;1.93;;;20.00;25.80;;;;;;2241480;62;21145;-66
2021/11/27 05:55:41;0.00;0.00;0.62;0.00;0.00;0.62;2.07;1.57;;;20.00;25.80;;;;;;2241773;62;20688;-65
2021/11/27 05:58:28;0.00;0.00;0.62;0.00;0.00;0.62;2.13;1.47;;;19.90;25.70;;;;;;2241138;62;20366;-66
2021/11/27 06:01:12;0.00;0.00;0.62;0.00;0.00;0.62;2.20;1.70;;;19.90;25.80;;;;;;2241659;61;20382;-66
2021/11/27 06:03:57;0.00;0.00;0.62;0.00;0.00;0.62;1.83;1.23;;;19.90;26.40;;;;;;2241343;62;20635;-67
2021/11/27 06:06:43;0.00;0.00;0.62;0.00;0.00;0.62;2.63;1.73;;;19.90;25.90;;;;;;2241942;62;20414;-66
2021/11/27 06:09:28;0.00;0.00;0.62;0.00;0.00;0.62;1.90;1.50;;;19.90;25.90;;;;;;2241455;62;20362;-65
2021/11/27 06:12:13;0.00;0.00;0.62;0.00;0.00;0.62;2.10;1.53;;;19.90;26.00;;;;;;2241222;62;20385;-68
2021/11/27 06:14:59;0.00;0.00;0.62;0.00;0.00;0.62;1.70;1.40;;;19.80;25.90;;;;;;2241315;62;20371;-67
2021/11/27 06:17:44;0.00;0.00;0.62;0.00;0.00;0.62;2.07;1.50;;;19.80;26.00;;;;;;2241705;62;20370;-67
2021/11/27 06:20:29;0.00;0.00;0.62;0.00;0.00;0.62;2.70;1.63;;;19.80;26.00;;;;;;2241099;61;20430;-67
2021/11/27 06:23:14;0.00;0.00;0.62;0.00;0.00;0.62;1.70;1.30;;;19.80;25.90;;;;;;2241591;62;20455;-66
2021/11/27 06:25:59;0.00;0.00;0.62;0.00;0.00;0.62;2.13;1.53;;;19.80;26.00;;;;;;2241680;62;20821;-67
2021/11/27 06:28:44;0.00;0.00;0.62;0.00;0.00;0.62;1.90;1.40;;;19.80;26.00;;;;;;2241439;62;20419;-67
2021/11/27 06:31:30;0.00;0.00;0.62;0.00;0.00;0.62;2.07;1.60;;;19.80;26.00;;;;;;2241184;61;20427;-67
2021/11/27 06:34:16;0.00;0.00;0.62;0.00;0.00;0.62;2.90;1.60;;;19.80;26.10;;;;;;2241187;62;20463;-66
2021/11/27 06:37:01;0.00;0.00;0.62;0.00;0.00;0.62;1.73;1.20;;;19.80;26.00;;;;;;2241635;62;20398;-67
2021/11/27 06:39:47;0.00;0.00;0.62;0.00;0.00;0.62;1.80;1.20;;;19.80;26.10;;;;;;2241539;62;20414;-67
2021/11/27 06:42:32;0.00;0.00;0.62;0.00;0.00;0.62;1.73;1.37;;;19.80;26.20;;;;;;2241031;62;20521;-67
2021/11/27 06:45:24;0.00;0.00;0.62;0.00;0.00;0.62;2.03;1.30;;;19.70;26.10;;;;;;2241685;62;20411;-67
2021/11/27 06:48:22;0.00;0.00;0.62;0.00;0.00;0.62;2.23;1.33;;;19.70;26.10;;;;;;2240932;62;20760;-67
2021/11/27 06:51:07;0.00;0.00;0.62;0.00;0.00;0.62;2.00;1.70;;;19.70;26.10;;;;;;2241821;61;20386;-65
2021/11/27 06:53:51;0.00;0.00;0.62;0.00;0.00;0.62;3.23;1.67;;;19.70;26.10;;;;;;2241527;62;20439;-66
2021/11/27 06:56:37;0.00;0.00;0.62;0.00;0.00;0.62;2.00;1.27;;;19.70;26.00;;;;;;2491301;53;20414;-68
2021/11/27 06:59:22;0.00;0.00;0.62;0.00;0.00;0.62;2.57;1.30;;;19.70;26.10;;;;;;2241538;62;20366;-67
2021/11/27 07:02:35;0.00;0.00;0.62;0.00;0.00;0.62;2.20;1.47;;;19.70;26.20;;;;;;2241513;62;20366;-68
2021/11/27 07:05:40;0.00;0.00;0.62;0.00;0.00;0.62;2.00;1.50;;;19.70;26.20;;;;;;2241455;62;20394;-68
2021/11/27 07:08:29;0.00;0.00;0.62;0.00;0.00;0.62;1.73;1.47;;;19.70;26.30;;;;;;2241168;62;20824;-68
2021/11/27 07:11:23;0.00;0.00;0.62;0.00;0.00;0.62;1.77;1.40;;;19.70;26.30;;;;;;2240410;62;20418;-68
2021/11/27 07:14:08;0.00;0.00;0.62;0.00;0.00;0.62;2.43;1.53;;;19.70;26.30;;;;;;2241267;62;20589;-68
2021/11/27 07:16:53;0.00;0.00;0.62;0.00;0.00;0.62;2.10;1.60;;;19.70;26.30;;;;;;2241601;62;20362;-67
2021/11/27 07:19:38;0.00;0.00;0.62;0.00;0.00;0.62;1.43;1.20;;;19.70;26.30;;;;;;2240752;62;20360;-67
2021/11/27 07:22:25;0.00;0.00;0.62;0.00;0.00;0.62;2.03;1.40;;;19.70;26.40;;;;;;2241371;62;20386;-68
2021/11/27 07:25:10;0.00;0.00;0.62;0.00;0.00;0.62;1.80;1.30;;;19.70;26.40;;;;;;2241535;62;20367;-67
2021/11/27 07:28:18;0.00;0.00;0.62;0.00;0.00;0.62;2.20;1.43;;;19.70;26.40;;;;;;2241758;62;20434;-66
2021/11/27 07:31:03;0.00;0.00;0.62;0.00;0.00;0.62;1.93;1.20;;;19.70;26.40;;;;;;2240923;61;20434;-68
2021/11/27 07:33:48;0.00;0.00;0.62;0.00;0.00;0.62;1.87;1.53;;;19.70;26.40;;;;;;2241112;62;20419;-68
2021/11/27 07:36:33;0.00;0.00;0.62;0.00;0.00;0.62;2.93;1.67;;;19.70;26.40;;;;;;2241572;62;20366;-68
2021/11/27 07:39:19;0.00;0.00;0.62;0.00;0.00;0.62;2.00;1.47;;;19.70;26.40;;;;;;2241329;62;20414;-67
2021/11/27 07:42:05;0.00;0.00;0.62;0.00;0.00;0.62;1.83;1.17;;;19.70;26.40;;;;;;2240892;62;20394;-67
2021/11/27 07:45:07;0.00;0.00;0.62;0.00;0.00;0.62;2.03;1.33;;;19.70;26.40;;;;;;2243896;61;20402;-67
2021/11/27 07:48:19;0.00;0.00;0.62;0.00;0.00;0.62;1.97;1.33;;;19.70;26.40;;;;;;2240675;61;20811;-67
2021/11/27 07:51:22;0.00;0.00;0.62;0.00;0.00;0.62;2.07;1.63;;;19.70;26.40;;;;;;2241448;61;20754;-68
2021/11/27 07:54:13;0.00;0.00;0.62;0.00;0.00;0.62;1.77;1.33;;;19.70;26.40;;;;;;2241077;62;20394;-67
2021/11/27 07:57:01;0.00;0.00;0.62;0.00;0.00;0.62;1.83;1.53;;;19.80;26.50;;;;;;2241763;62;20361;-67
2021/11/27 07:59:45;0.00;0.00;0.62;0.00;0.00;0.62;2.20;1.50;;;19.80;26.50;;;;;;2242007;62;20440;-67
2021/11/27 08:02:30;0.00;0.00;0.62;0.00;0.00;0.62;2.27;1.43;;;19.70;26.30;;;;;;2241175;62;20370;-67
2021/11/27 08:05:15;0.00;0.00;0.62;0.00;0.00;0.62;2.00;1.40;;;19.70;26.40;;;;;;2242377;62;20411;-68
2021/11/27 08:08:00;0.00;0.00;0.62;0.00;0.00;0.62;2.10;1.30;;;19.80;26.50;;;;;;2241892;62;20392;-67
2021/11/27 08:10:45;0.00;0.00;0.62;0.00;0.00;0.62;2.00;1.50;;;19.70;26.40;;;;;;2241169;61;20370;-65
2021/11/27 08:13:31;0.00;0.00;0.62;0.00;0.00;0.62;2.10;1.37;;;19.70;26.40;;;;;;2242134;62;20518;-67
2021/11/27 08:16:16;0.00;0.00;0.62;0.00;0.00;0.62;2.50;1.43;;;19.80;26.40;;;;;;2242009;62;20362;-70
2021/11/27 08:19:02;0.00;0.00;0.62;0.00;0.00;0.62;3.60;1.60;;;19.80;26.30;;;;;;2241428;62;20718;-71
2021/11/27 08:21:46;0.00;0.00;0.62;0.00;0.00;0.62;3.03;1.60;;;19.80;26.30;;;;;;2241935;61;20386;-72
2021/11/27 08:24:31;0.00;0.00;0.62;0.00;0.00;0.62;2.40;1.67;;;19.80;26.30;;;;;;2242130;62;20366;-69
2021/11/27 08:27:16;0.00;0.00;0.62;0.00;0.00;0.62;2.03;1.57;;;19.80;26.40;;;;;;2239153;62;20829;-72
2021/11/27 08:30:06;0.00;0.00;0.62;0.00;0.00;0.62;2.10;1.40;;;19.80;26.40;;;;;;2241499;62;20366;-71
2021/11/27 08:32:51;0.00;0.00;0.62;0.00;0.00;0.62;2.10;1.60;;;19.80;26.50;;;;;;2244119;61;20378;-71
2021/11/27 08:35:36;0.00;0.00;0.62;0.00;0.00;0.62;2.30;1.70;;;19.80;26.40;;;;;;2242201;62;20606;-71
2021/11/27 08:38:21;0.00;0.00;0.62;0.00;0.00;0.62;2.83;2.03;;;19.70;26.40;;;;;;2242106;62;20386;-70
2021/11/27 08:41:08;0.00;0.00;0.62;0.00;0.00;0.62;2.00;1.57;;;19.70;26.40;;;;;;2241026;61;20757;-71
2021/11/27 08:43:54;0.00;0.00;0.62;0.00;0.00;0.62;4.77;1.57;;;19.70;26.40;;;;;;2241998;62;20410;-71
2021/11/27 08:46:40;0.00;0.00;0.62;0.00;0.00;0.62;2.97;1.90;;;19.70;26.40;;;;;;2242084;62;20402;-70
2021/11/27 08:49:26;0.00;0.00;0.62;0.00;0.00;0.62;2.03;1.63;;;19.70;26.40;;;;;;2242130;62;20455;-70
2021/11/27 08:52:11;0.00;0.00;0.62;0.00;0.00;0.62;2.13;1.57;;;19.70;26.40;;;;;;2242102;62;20430;-69
2021/11/27 08:54:56;0.00;0.00;0.62;0.00;0.00;0.62;2.13;1.50;;;19.70;26.40;;;;;;2241648;62;20422;-66
2021/11/27 08:57:41;0.00;0.00;0.62;0.00;0.00;0.62;2.17;1.33;;;19.70;26.40;;;;;;2242110;62;20605;-70
2021/11/27 09:00:27;0.00;0.00;0.62;0.00;0.00;0.62;2.83;1.87;;;19.70;26.40;;;;;;2241941;61;20426;-70
2021/11/27 09:03:13;0.00;0.00;0.62;0.00;0.00;0.62;2.17;1.83;;;19.70;26.40;;;;;;2241411;62;20398;-67
2021/11/27 09:06:00;0.00;0.00;0.62;0.00;0.00;0.62;2.73;2.27;;;19.70;26.20;;;;;;2241887;62;20394;-70
2021/11/27 09:08:45;0.00;0.00;0.62;0.00;0.00;0.62;2.60;1.60;;;19.70;26.30;;;;;;2241723;62;20354;-72
2021/11/27 09:11:31;0.00;0.00;0.62;0.00;0.00;0.62;2.10;1.50;;;19.70;26.40;;;;;;2242191;61;20387;-70
2021/11/27 09:14:16;0.00;0.00;0.62;0.00;0.00;0.62;3.47;1.90;;;19.70;26.40;;;;;;2238808;62;20366;-69
2021/11/27 09:17:02;0.00;0.00;0.62;0.00;0.00;0.62;2.97;1.70;;;19.70;26.40;;;;;;2241456;62;20355;-70
2021/11/27 09:19:48;0.00;0.00;0.62;0.00;0.00;0.62;2.00;1.50;;;19.60;26.30;;;;;;2241925;62;20488;-70
2021/11/27 09:22:33;0.00;0.00;0.62;0.00;0.00;0.62;2.20;1.57;;;19.60;26.40;;;;;;2241436;62;20734;-71
2021/11/27 09:25:18;0.00;0.00;0.62;0.00;0.00;0.62;2.07;1.50;;;19.70;26.40;;;;;;2241322;62;20410;-69
2021/11/27 09:28:04;0.00;0.00;0.62;0.00;0.00;0.62;2.37;1.90;;;19.60;26.30;;;;;;2241953;62;20450;-67
2021/11/27 09:30:50;0.00;0.00;0.62;0.00;0.00;0.62;4.70;1.90;;;19.60;26.30;;;;;;2241228;61;20391;-72
2021/11/27 09:33:35;0.00;0.00;0.62;0.00;0.00;0.62;2.83;1.47;;;19.70;26.40;;;;;;2241761;62;20578;-70
2021/11/27 09:36:22;0.00;0.00;0.62;0.00;0.00;0.62;1.90;1.47;;;19.60;26.30;;;;;;2241513;62;20366;-71
2021/11/27 09:39:10;0.00;0.00;0.62;0.00;0.00;0.62;1.70;1.40;;;19.60;26.30;;;;;;2240983;62;20362;-68
2021/11/27 09:41:57;0.00;0.00;0.62;0.00;0.00;0.62;2.00;1.40;;;19.70;26.40;;;;;;2241943;61;20433;-74
2021/11/27 09:44:48;0.00;0.00;0.62;0.00;0.00;0.62;1.87;1.30;;;19.70;26.40;;;;;;2242049;62;20410;-69
2021/11/27 09:47:33;0.00;0.00;0.62;0.00;0.00;0.62;2.13;1.30;;;19.70;26.40;;;;;;2241181;62;20771;-64
2021/11/27 09:50:20;0.00;0.00;0.62;0.00;0.00;0.62;3.10;1.60;;;19.70;26.40;;;;;;2241436;61;20358;-69
2021/11/27 09:53:06;0.00;0.00;0.62;0.00;0.00;0.62;1.53;1.13;;;19.70;26.40;;;;;;2241758;62;20399;-69
2021/11/27 09:55:51;0.00;0.00;0.62;0.00;0.00;0.62;1.80;1.20;;;19.70;26.50;;;;;;2242024;62;20488;-69
2021/11/27 09:58:36;0.00;0.00;0.62;0.00;0.00;0.62;2.20;1.20;;;19.70;26.50;;;;;;2241706;62;20414;-65
2021/11/27 10:01:25;0.00;0.00;0.62;0.00;0.00;0.62;1.97;1.30;;;19.80;26.50;;;;;;2241026;61;20386;-66
2021/11/27 10:04:10;0.00;0.00;0.62;0.00;0.00;0.62;1.80;1.23;;;19.80;26.60;;;;;;2241939;62;20419;-70
2021/11/27 10:06:59;0.00;0.00;0.62;0.00;0.00;0.62;1.80;1.10;;;19.80;26.50;;;;;;2241277;62;20470;-68
2021/11/27 10:09:47;0.00;0.00;0.62;0.00;0.00;0.62;2.07;1.30;;;19.80;26.50;;;;;;2241257;62;20366;-69
2021/11/27 10:12:32;0.00;0.00;0.62;0.00;0.00;0.62;1.80;1.20;;;19.80;26.50;;;;;;2241787;62;20365;-70
2021/11/27 10:15:17;0.00;0.00;0.62;0.00;0.00;0.62;3.00;1.33;;;19.90;26.50;;;;;;2244048;61;20758;-68
2021/11/27 10:18:14;0.00;0.00;0.62;0.00;0.00;0.62;1.40;1.00;;;19.90;27.00;;;;;;2241892;62;20398;-70
2021/11/27 10:21:20;0.00;0.00;0.62;0.00;0.00;0.62;3.37;1.13;;;19.90;26.60;;;;;;2241289;61;20750;-68
2021/11/27 10:24:20;0.00;0.00;0.62;0.00;0.00;0.62;2.77;1.10;;;19.90;26.50;;;;;;2241251;62;20370;-68
2021/11/27 10:27:22;0.00;0.00;0.62;0.00;0.00;0.62;1.87;0.90;;;19.90;26.50;;;;;;2241614;62;20386;-70
2021/11/27 10:30:10;0.00;0.00;0.62;0.00;0.00;0.62;1.80;1.03;;;19.90;26.50;;;;;;2241601;61;20358;-69
2021/11/27 10:32:57;0.00;0.00;0.62;0.00;0.00;0.62;1.50;1.00;;;19.90;26.50;;;;;;2241687;62;20427;-69
2021/11/27 10:36:00;0.00;0.00;0.62;0.00;0.00;0.62;1.97;1.00;;;20.00;26.60;;;;;;2241582;62;20359;-70
2021/11/27 10:38:51;0.00;0.00;0.62;0.00;0.00;0.62;1.53;1.00;;;20.00;26.60;;;;;;2240713;62;20637;-69
2021/11/27 10:41:37;0.00;0.00;0.62;0.00;0.00;0.62;1.60;1.10;;;20.00;26.60;;;;;;2241457;61;20785;-70
2021/11/27 10:44:29;0.00;0.00;0.62;0.00;0.00;0.62;1.70;1.00;;;20.00;26.60;;;;;;2241755;62;20738;-69
2021/11/27 10:47:16;0.00;0.00;0.62;0.00;0.00;0.62;1.27;0.80;;;20.10;26.70;;;;;;2241230;62;20409;-69
2021/11/27 10:50:08;0.00;0.00;0.62;0.00;0.00;0.62;1.30;0.80;;;20.10;26.70;;;;;;2241566;62;20375;-70
2021/11/27 10:52:54;0.00;0.00;0.62;0.00;0.00;0.62;2.17;1.00;;;20.10;26.70;;;;;;2241129;62;20426;-69
2021/11/27 10:55:40;0.00;0.00;0.62;0.00;0.00;0.62;1.40;0.90;;;20.10;26.70;;;;;;2241845;62;20361;-69
2021/11/27 10:58:24;0.00;0.00;0.62;0.00;0.00;0.62;1.30;0.80;;;20.10;26.70;;;;;;2241545;62;20370;-70
2021/11/27 11:01:11;0.00;0.00;0.62;0.00;0.00;0.62;1.40;0.90;;;20.10;26.70;;;;;;2241010;61;20441;-70